createdAt,value
2018-01-03T00:00:11.145Z,982.11
2018-01-03T00:01:11.269Z,982.11
2018-01-03T00:02:11.207Z,982.04
2018-01-03T00:03:11.239Z,981.97
2018-01-03T00:04:11.270Z,982.00
2018-01-03T00:05:11.305Z,981.90
2018-01-03T00:06:11.335Z,981.85
2018-01-03T00:07:11.365Z,981.89
2018-01-03T00:08:11.407Z,981.89
2018-01-03T00:09:11.440Z,981.93
2018-01-03T00:10:11.458Z,981.94
2018-01-03T00:11:11.492Z,981.85
2018-01-03T00:12:11.523Z,981.84
2018-01-03T00:13:11.558Z,981.74
2018-01-03T00:14:11.586Z,981.72
2018-01-03T00:15:11.618Z,981.65
2018-01-03T00:16:11.647Z,981.57
2018-01-03T00:17:11.680Z,981.55
2018-01-03T00:18:11.798Z,981.51
2018-01-03T00:19:11.742Z,981.48
2018-01-03T00:20:11.779Z,981.49
2018-01-03T00:21:11.807Z,981.42
2018-01-03T00:22:11.836Z,981.43
2018-01-03T00:23:11.880Z,981.28
2018-01-03T00:24:11.902Z,981.29
2018-01-03T00:25:11.933Z,981.28
2018-01-03T00:26:11.959Z,981.30
2018-01-03T00:27:11.998Z,981.28
2018-01-03T00:28:12.022Z,981.27
2018-01-03T00:29:12.058Z,981.22
2018-01-03T00:30:12.089Z,981.14
2018-01-03T00:31:12.118Z,981.08
2018-01-03T00:32:12.149Z,981.12
2018-01-03T00:33:12.183Z,981.15
2018-01-03T00:34:12.210Z,981.09
2018-01-03T00:35:12.244Z,981.06
2018-01-03T00:36:12.279Z,981.05
2018-01-03T00:37:12.371Z,981.05
2018-01-03T00:38:12.340Z,980.91
2018-01-03T00:39:12.376Z,980.93
2018-01-03T00:40:12.401Z,980.82
2018-01-03T00:41:12.431Z,980.87
2018-01-03T00:42:12.462Z,980.79
2018-01-03T00:43:12.494Z,980.77
2018-01-03T00:44:12.531Z,980.71
2018-01-03T00:45:12.560Z,980.57
2018-01-03T00:46:12.589Z,980.63
2018-01-03T00:47:12.619Z,980.64
2018-01-03T00:48:12.662Z,980.50
2018-01-03T00:49:12.685Z,980.50
2018-01-03T00:50:12.715Z,980.43
2018-01-03T00:51:12.751Z,980.42
2018-01-03T00:52:12.780Z,980.37
2018-01-03T00:53:12.811Z,980.42
2018-01-03T00:54:12.902Z,980.29
2018-01-03T00:55:12.874Z,980.24
2018-01-03T00:56:12.905Z,980.23
2018-01-03T00:57:12.935Z,980.19
2018-01-03T00:58:12.986Z,980.18
2018-01-03T00:59:13.002Z,980.16
2018-01-03T01:00:13.032Z,980.12
2018-01-03T01:01:13.394Z,980.07
2018-01-03T01:02:13.096Z,980.08
2018-01-03T01:03:13.125Z,980.03
2018-01-03T01:04:13.157Z,979.97
2018-01-03T01:05:13.192Z,980.02
2018-01-03T01:06:13.217Z,979.94
2018-01-03T01:07:13.250Z,979.82
2018-01-03T01:08:13.282Z,979.86
2018-01-03T01:09:13.314Z,979.73
2018-01-03T01:10:13.344Z,979.72
2018-01-03T01:11:13.378Z,979.72
2018-01-03T01:12:13.415Z,979.66
2018-01-03T01:13:13.448Z,979.67
2018-01-03T01:14:13.471Z,979.64
2018-01-03T01:15:13.502Z,979.60
2018-01-03T01:16:13.533Z,979.49
2018-01-03T01:17:13.575Z,979.46
2018-01-03T01:18:13.597Z,979.42
2018-01-03T01:19:13.626Z,979.48
2018-01-03T01:20:13.686Z,979.49
2018-01-03T01:21:13.689Z,979.43
2018-01-03T01:22:13.724Z,979.41
2018-01-03T01:23:13.761Z,979.42
2018-01-03T01:24:13.784Z,979.38
2018-01-03T01:25:13.896Z,979.31
2018-01-03T01:26:13.846Z,979.27
2018-01-03T01:27:13.879Z,979.32
2018-01-03T01:28:13.909Z,979.25
2018-01-03T01:29:13.945Z,979.22
2018-01-03T01:30:13.974Z,979.18
2018-01-03T01:31:14.004Z,979.20
2018-01-03T01:32:14.035Z,979.20
2018-01-03T01:33:14.067Z,979.17
2018-01-03T01:34:14.098Z,978.96
2018-01-03T01:35:14.143Z,978.98
2018-01-03T01:36:14.166Z,978.95
2018-01-03T01:37:14.195Z,978.90
2018-01-03T01:38:14.227Z,978.93
2018-01-03T01:39:14.256Z,978.80
2018-01-03T01:40:14.293Z,978.74
2018-01-03T01:41:14.327Z,978.65
2018-01-03T01:42:14.349Z,978.55
2018-01-03T01:43:14.382Z,978.55
2018-01-03T01:44:14.471Z,978.54
2018-01-03T01:45:14.445Z,978.50
2018-01-03T01:46:14.480Z,978.47
2018-01-03T01:47:14.509Z,978.39
2018-01-03T01:48:14.539Z,978.32
2018-01-03T01:49:14.571Z,978.35
2018-01-03T01:50:14.615Z,978.29
2018-01-03T01:51:14.642Z,978.25
2018-01-03T01:52:14.667Z,978.20
2018-01-03T01:53:14.698Z,978.19
2018-01-03T01:54:14.733Z,978.10
2018-01-03T01:55:14.759Z,978.06
2018-01-03T01:56:14.792Z,978.02
2018-01-03T01:57:14.836Z,977.98
2018-01-03T01:58:14.856Z,977.98
2018-01-03T01:59:14.886Z,977.97
2018-01-03T02:00:14.917Z,977.82
2018-01-03T02:01:14.949Z,977.83
2018-01-03T02:02:14.977Z,977.84
2018-01-03T02:03:15.011Z,977.77
2018-01-03T02:04:15.054Z,977.67
2018-01-03T02:05:15.074Z,977.67
2018-01-03T02:06:15.103Z,977.69
2018-01-03T02:07:15.148Z,977.72
2018-01-03T02:08:15.537Z,977.69
2018-01-03T02:09:15.202Z,977.77
2018-01-03T02:10:15.229Z,977.73
2018-01-03T02:11:15.262Z,977.71
2018-01-03T02:12:15.292Z,977.72
2018-01-03T02:13:15.324Z,977.57
2018-01-03T02:14:15.359Z,977.52
2018-01-03T02:15:15.389Z,977.38
2018-01-03T02:16:15.419Z,977.35
2018-01-03T02:17:15.449Z,977.37
2018-01-03T02:18:15.481Z,977.37
2018-01-03T02:19:15.515Z,977.34
2018-01-03T02:20:15.603Z,977.24
2018-01-03T02:21:15.581Z,977.23
2018-01-03T02:22:15.609Z,977.18
2018-01-03T02:23:15.641Z,977.09
2018-01-03T02:24:15.670Z,976.98
2018-01-03T02:25:15.701Z,976.85
2018-01-03T02:26:15.733Z,976.78
2018-01-03T02:27:15.863Z,976.81
2018-01-03T02:28:15.794Z,976.77
2018-01-03T02:29:15.883Z,976.67
2018-01-03T02:30:15.855Z,976.62
2018-01-03T02:31:15.890Z,976.67
2018-01-03T02:32:15.921Z,976.67
2018-01-03T02:33:15.952Z,976.71
2018-01-03T02:34:15.981Z,976.62
2018-01-03T02:35:16.023Z,976.58
2018-01-03T02:36:16.048Z,976.62
2018-01-03T02:37:16.077Z,976.44
2018-01-03T02:38:16.107Z,976.35
2018-01-03T02:39:16.141Z,976.34
2018-01-03T02:40:16.173Z,976.26
2018-01-03T02:41:16.202Z,976.37
2018-01-03T02:42:16.234Z,976.27
2018-01-03T02:43:16.269Z,976.30
2018-01-03T02:44:16.303Z,976.16
2018-01-03T02:45:16.334Z,976.05
2018-01-03T02:46:16.362Z,975.96
2018-01-03T02:47:16.392Z,975.95
2018-01-03T02:48:16.424Z,975.87
2018-01-03T02:49:16.463Z,975.83
2018-01-03T02:50:16.486Z,975.75
2018-01-03T02:51:16.542Z,975.65
2018-01-03T02:52:16.554Z,975.57
2018-01-03T02:53:16.584Z,975.45
2018-01-03T02:54:16.623Z,975.44
2018-01-03T02:55:16.657Z,975.28
2018-01-03T02:56:16.674Z,975.25
2018-01-03T02:57:16.708Z,975.16
2018-01-03T02:58:16.753Z,975.12
2018-01-03T02:59:16.769Z,974.87
2018-01-03T03:00:16.803Z,974.88
2018-01-03T03:01:16.836Z,974.81
2018-01-03T03:02:16.865Z,974.72
2018-01-03T03:03:16.898Z,974.66
2018-01-03T03:04:16.927Z,974.51
2018-01-03T03:05:16.959Z,974.33
2018-01-03T03:06:16.990Z,974.27
2018-01-03T03:07:17.024Z,974.14
2018-01-03T03:08:17.055Z,974.20
2018-01-03T03:09:17.084Z,974.22
2018-01-03T03:10:17.116Z,974.14
2018-01-03T03:11:17.148Z,974.04
2018-01-03T03:12:17.185Z,973.94
2018-01-03T03:13:17.212Z,973.82
2018-01-03T03:14:17.297Z,973.77
2018-01-03T03:15:17.276Z,973.76
2018-01-03T03:16:17.307Z,973.68
2018-01-03T03:17:17.339Z,973.67
2018-01-03T03:18:17.369Z,973.64
2018-01-03T03:19:17.401Z,973.62
2018-01-03T03:20:17.452Z,973.48
2018-01-03T03:21:17.463Z,973.57
2018-01-03T03:22:17.499Z,973.54
2018-01-03T03:23:17.529Z,973.63
2018-01-03T03:24:17.560Z,973.55
2018-01-03T03:25:17.593Z,973.46
2018-01-03T03:26:17.636Z,973.38
2018-01-03T03:27:17.657Z,973.20
2018-01-03T03:28:17.688Z,973.00
2018-01-03T03:29:17.717Z,972.91
2018-01-03T03:30:17.751Z,972.89
2018-01-03T03:31:17.782Z,972.88
2018-01-03T03:32:17.822Z,972.72
2018-01-03T03:33:17.860Z,972.67
2018-01-03T03:34:18.220Z,972.55
2018-01-03T03:35:17.915Z,972.46
2018-01-03T03:36:17.942Z,972.40
2018-01-03T03:37:17.972Z,972.31
2018-01-03T03:38:18.004Z,972.10
2018-01-03T03:39:18.035Z,972.09
2018-01-03T03:40:18.069Z,972.03
2018-01-03T03:41:18.099Z,971.95
2018-01-03T03:42:18.132Z,972.07
2018-01-03T03:43:18.161Z,972.08
2018-01-03T03:44:18.196Z,971.99
2018-01-03T03:45:18.225Z,971.92
2018-01-03T03:46:18.319Z,971.89
2018-01-03T03:47:18.292Z,971.92
2018-01-03T03:48:18.324Z,971.98
2018-01-03T03:49:18.352Z,971.97
2018-01-03T03:50:18.383Z,971.92
2018-01-03T03:51:18.672Z,971.88
2018-01-03T03:52:18.451Z,971.88
2018-01-03T03:53:18.480Z,971.82
2018-01-03T03:54:18.509Z,971.72
2018-01-03T03:55:18.546Z,971.76
2018-01-03T03:56:18.576Z,971.68
2018-01-03T03:57:18.611Z,971.64
2018-01-03T03:58:18.694Z,971.55
2018-01-03T03:59:18.671Z,971.62
2018-01-03T04:00:18.704Z,971.51
2018-01-03T04:01:18.736Z,971.43
2018-01-03T04:02:18.767Z,971.36
2018-01-03T04:03:18.801Z,971.28
2018-01-03T04:04:18.832Z,971.21
2018-01-03T04:05:18.865Z,971.11
2018-01-03T04:06:18.894Z,971.11
2018-01-03T04:07:18.925Z,971.09
2018-01-03T04:08:18.957Z,971.06
2018-01-03T04:09:18.998Z,970.94
2018-01-03T04:10:19.128Z,970.87
2018-01-03T04:11:19.056Z,970.80
2018-01-03T04:12:19.094Z,970.76
2018-01-03T04:13:19.118Z,970.78
2018-01-03T04:14:19.153Z,970.67
2018-01-03T04:15:19.179Z,970.66
2018-01-03T04:16:19.213Z,970.58
2018-01-03T04:17:19.331Z,970.44
2018-01-03T04:18:19.280Z,970.38
2018-01-03T04:19:19.307Z,970.34
2018-01-03T04:20:19.343Z,970.31
2018-01-03T04:21:19.373Z,970.23
2018-01-03T04:22:19.416Z,970.12
2018-01-03T04:23:19.435Z,970.06
2018-01-03T04:24:19.471Z,970.04
2018-01-03T04:25:19.509Z,969.92
2018-01-03T04:26:19.528Z,969.89
2018-01-03T04:27:19.563Z,969.76
2018-01-03T04:28:19.593Z,969.62
2018-01-03T04:29:19.625Z,969.56
2018-01-03T04:30:19.656Z,969.48
2018-01-03T04:31:19.689Z,969.33
2018-01-03T04:32:19.722Z,969.20
2018-01-03T04:33:19.756Z,969.13
2018-01-03T04:34:19.848Z,968.85
2018-01-03T04:35:19.815Z,968.66
2018-01-03T04:36:19.847Z,968.52
2018-01-03T04:37:19.879Z,968.48
2018-01-03T04:38:19.909Z,968.60
2018-01-03T04:39:20.145Z,968.54
2018-01-03T04:40:19.976Z,968.67
2018-01-03T04:41:20.075Z,968.72
2018-01-03T04:42:20.046Z,968.81
2018-01-03T04:43:20.074Z,968.86
2018-01-03T04:44:20.101Z,968.76
2018-01-03T04:45:20.137Z,968.69
2018-01-03T04:46:20.167Z,968.59
2018-01-03T04:47:20.210Z,968.50
2018-01-03T04:48:20.268Z,968.62
2018-01-03T04:49:20.269Z,968.57
2018-01-03T04:50:20.294Z,968.62
2018-01-03T04:51:20.329Z,968.46
2018-01-03T04:52:20.356Z,968.50
2018-01-03T04:53:20.390Z,968.47
2018-01-03T04:54:20.418Z,968.39
2018-01-03T04:55:20.451Z,968.25
2018-01-03T04:56:20.485Z,968.25
2018-01-03T04:57:20.518Z,968.14
2018-01-03T04:58:20.547Z,968.10
2018-01-03T04:59:20.580Z,968.11
2018-01-03T05:00:20.613Z,968.03
2018-01-03T05:01:20.647Z,967.95
2018-01-03T05:02:20.679Z,967.89
2018-01-03T05:03:20.707Z,967.98
2018-01-03T05:04:20.740Z,967.97
2018-01-03T05:05:20.770Z,967.80
2018-01-03T05:06:20.803Z,967.56
2018-01-03T05:07:21.150Z,967.49
2018-01-03T05:08:20.868Z,967.44
2018-01-03T05:09:20.908Z,967.53
2018-01-03T05:10:20.930Z,967.39
2018-01-03T05:11:20.963Z,967.44
2018-01-03T05:12:20.998Z,967.27
2018-01-03T05:13:21.028Z,967.25
2018-01-03T05:14:21.059Z,967.19
2018-01-03T05:15:21.096Z,967.15
2018-01-03T05:16:21.125Z,967.18
2018-01-03T05:17:21.155Z,967.22
2018-01-03T05:18:21.190Z,967.14
2018-01-03T05:19:21.220Z,967.12
2018-01-03T05:20:21.258Z,967.11
2018-01-03T05:21:21.294Z,967.08
2018-01-03T05:22:21.317Z,966.96
2018-01-03T05:23:21.349Z,966.95
2018-01-03T05:24:21.399Z,966.94
2018-01-03T05:25:21.411Z,966.96
2018-01-03T05:26:21.442Z,966.91
2018-01-03T05:27:21.477Z,966.89
2018-01-03T05:28:21.510Z,966.83
2018-01-03T05:29:21.558Z,966.78
2018-01-03T05:30:21.634Z,966.69
2018-01-03T05:31:21.701Z,966.75
2018-01-03T05:32:21.637Z,966.68
2018-01-03T05:33:21.672Z,966.69
2018-01-03T05:34:21.704Z,966.75
2018-01-03T05:35:21.752Z,966.72
2018-01-03T05:36:21.768Z,966.65
2018-01-03T05:37:21.801Z,966.68
2018-01-03T05:38:21.830Z,966.52
2018-01-03T05:39:21.860Z,966.56
2018-01-03T05:40:21.894Z,966.51
2018-01-03T05:41:21.925Z,966.42
2018-01-03T05:42:21.955Z,966.45
2018-01-03T05:43:21.990Z,966.45
2018-01-03T05:44:22.024Z,966.42
2018-01-03T05:45:22.056Z,966.43
2018-01-03T05:46:22.087Z,966.36
2018-01-03T05:47:22.123Z,966.38
2018-01-03T05:48:22.153Z,966.38
2018-01-03T05:49:22.185Z,966.34
2018-01-03T05:50:22.218Z,966.34
2018-01-03T05:51:22.264Z,966.21
2018-01-03T05:52:22.294Z,966.04
2018-01-03T05:53:22.323Z,965.94
2018-01-03T05:54:22.349Z,965.83
2018-01-03T05:55:22.378Z,965.75
2018-01-03T05:56:22.425Z,965.73
2018-01-03T05:57:22.446Z,965.64
2018-01-03T05:58:22.491Z,965.68
2018-01-03T05:59:22.514Z,965.69
2018-01-03T06:00:22.545Z,965.65
2018-01-03T06:01:22.584Z,965.68
2018-01-03T06:02:22.606Z,965.70
2018-01-03T06:03:22.644Z,965.57
2018-01-03T06:04:22.676Z,965.49
2018-01-03T06:05:22.705Z,965.40
2018-01-03T06:06:22.736Z,965.54
2018-01-03T06:07:22.788Z,965.52
2018-01-03T06:08:22.804Z,965.63
2018-01-03T06:09:22.835Z,965.82
2018-01-03T06:10:22.868Z,965.77
2018-01-03T06:11:22.910Z,965.51
2018-01-03T06:12:22.934Z,965.47
2018-01-03T06:13:22.976Z,965.39
2018-01-03T06:14:23.030Z,965.50
2018-01-03T06:15:23.036Z,965.52
2018-01-03T06:16:23.064Z,965.45
2018-01-03T06:17:23.095Z,965.34
2018-01-03T06:18:23.127Z,965.59
2018-01-03T06:19:23.161Z,965.60
2018-01-03T06:20:23.195Z,965.63
2018-01-03T06:21:23.298Z,965.82
2018-01-03T06:22:23.259Z,965.87
2018-01-03T06:23:23.291Z,965.97
2018-01-03T06:24:23.324Z,966.03
2018-01-03T06:25:23.357Z,966.03
2018-01-03T06:26:23.390Z,966.21
2018-01-03T06:27:23.436Z,966.26
2018-01-03T06:28:23.456Z,965.96
2018-01-03T06:29:23.489Z,965.28
2018-01-03T06:30:23.522Z,965.15
2018-01-03T06:31:23.558Z,965.16
2018-01-03T06:32:23.588Z,965.24
2018-01-03T06:33:23.680Z,965.43
2018-01-03T06:34:23.653Z,965.21
2018-01-03T06:35:23.687Z,965.20
2018-01-03T06:36:23.718Z,965.14
2018-01-03T06:37:23.766Z,964.84
2018-01-03T06:38:23.786Z,964.75
2018-01-03T06:39:23.817Z,964.53
2018-01-03T06:40:23.850Z,964.20
2018-01-03T06:41:23.883Z,964.13
2018-01-03T06:42:23.925Z,964.14
2018-01-03T06:43:23.951Z,964.33
2018-01-03T06:44:23.997Z,964.48
2018-01-03T06:45:24.070Z,964.62
2018-01-03T06:46:24.049Z,964.77
2018-01-03T06:47:24.082Z,964.85
2018-01-03T06:48:24.114Z,964.93
2018-01-03T06:49:24.150Z,964.95
2018-01-03T06:50:24.178Z,965.06
2018-01-03T06:51:24.213Z,965.06
2018-01-03T06:52:24.244Z,965.10
2018-01-03T06:53:24.284Z,965.11
2018-01-03T06:54:24.311Z,965.23
2018-01-03T06:55:24.345Z,965.27
2018-01-03T06:56:24.385Z,965.38
2018-01-03T06:57:24.412Z,965.52
2018-01-03T06:58:24.446Z,965.56
2018-01-03T06:59:24.477Z,965.71
2018-01-03T07:00:24.531Z,966.03
2018-01-03T07:01:24.544Z,966.34
2018-01-03T07:02:24.576Z,966.22
2018-01-03T07:03:24.611Z,966.32
2018-01-03T07:04:24.705Z,966.33
2018-01-03T07:05:24.676Z,966.11
2018-01-03T07:06:24.711Z,966.14
2018-01-03T07:07:24.744Z,966.14
2018-01-03T07:08:24.775Z,966.18
2018-01-03T07:09:24.811Z,966.29
2018-01-03T07:10:24.856Z,966.32
2018-01-03T07:11:24.952Z,966.32
2018-01-03T07:12:24.919Z,966.36
2018-01-03T07:13:24.944Z,966.35
2018-01-03T07:14:24.979Z,966.22
2018-01-03T07:15:25.013Z,966.10
2018-01-03T07:16:25.042Z,966.01
2018-01-03T07:17:25.077Z,965.88
2018-01-03T07:18:25.121Z,965.73
2018-01-03T07:19:25.142Z,965.61
2018-01-03T07:20:25.175Z,965.52
2018-01-03T07:21:25.207Z,965.44
2018-01-03T07:22:25.245Z,965.42
2018-01-03T07:23:25.275Z,965.43
2018-01-03T07:24:25.376Z,965.44
2018-01-03T07:25:25.342Z,965.51
2018-01-03T07:26:25.374Z,965.60
2018-01-03T07:27:25.409Z,965.71
2018-01-03T07:28:25.511Z,965.77
2018-01-03T07:29:25.476Z,965.63
2018-01-03T07:30:25.517Z,965.47
2018-01-03T07:31:25.546Z,965.39
2018-01-03T07:32:25.576Z,965.27
2018-01-03T07:33:25.612Z,965.21
2018-01-03T07:34:25.652Z,965.25
2018-01-03T07:35:25.785Z,965.29
2018-01-03T07:36:25.709Z,965.31
2018-01-03T07:37:25.745Z,965.30
2018-01-03T07:38:25.773Z,965.33
2018-01-03T07:39:25.806Z,965.41
2018-01-03T07:40:25.859Z,965.43
2018-01-03T07:41:25.874Z,965.48
2018-01-03T07:42:25.925Z,965.57
2018-01-03T07:43:25.947Z,965.62
2018-01-03T07:44:25.973Z,965.66
2018-01-03T07:45:26.010Z,965.64
2018-01-03T07:46:26.041Z,965.69
2018-01-03T07:47:26.127Z,965.82
2018-01-03T07:48:26.109Z,965.78
2018-01-03T07:49:26.140Z,965.88
2018-01-03T07:50:26.230Z,966.00
2018-01-03T07:51:26.208Z,966.12
2018-01-03T07:52:26.246Z,966.21
2018-01-03T07:53:26.282Z,966.22
2018-01-03T07:54:26.403Z,966.10
2018-01-03T07:55:26.341Z,966.13
2018-01-03T07:56:26.375Z,966.20
2018-01-03T07:57:26.410Z,965.98
2018-01-03T07:58:26.442Z,965.95
2018-01-03T07:59:26.477Z,965.72
2018-01-03T08:00:26.512Z,965.64
2018-01-03T08:01:26.542Z,965.47
2018-01-03T08:02:26.576Z,965.28
2018-01-03T08:03:26.606Z,965.05
2018-01-03T08:04:26.641Z,964.68
2018-01-03T08:05:26.686Z,964.39
2018-01-03T08:06:26.707Z,964.33
2018-01-03T08:07:26.740Z,964.22
2018-01-03T08:08:26.776Z,964.26
2018-01-03T08:09:26.807Z,964.29
2018-01-03T08:10:26.846Z,964.51
2018-01-03T08:11:26.934Z,964.72
2018-01-03T08:12:26.907Z,965.06
2018-01-03T08:13:26.939Z,965.41
2018-01-03T08:14:26.979Z,965.59
2018-01-03T08:15:27.007Z,965.73
2018-01-03T08:16:27.041Z,965.72
2018-01-03T08:17:27.073Z,965.72
2018-01-03T08:18:27.108Z,965.69
2018-01-03T08:19:27.141Z,965.64
2018-01-03T08:20:27.173Z,965.70
2018-01-03T08:21:27.226Z,965.69
2018-01-03T08:22:27.244Z,965.74
2018-01-03T08:23:27.334Z,965.72
2018-01-03T08:24:27.309Z,965.69
2018-01-03T08:25:27.413Z,965.75
2018-01-03T08:26:27.372Z,965.85
2018-01-03T08:27:27.411Z,965.90
2018-01-03T08:28:27.439Z,965.72
2018-01-03T08:29:27.476Z,965.70
2018-01-03T08:30:27.506Z,965.75
2018-01-03T08:31:27.552Z,965.77
2018-01-03T08:32:27.610Z,965.77
2018-01-03T08:33:27.606Z,965.65
2018-01-03T08:34:27.639Z,965.72
2018-01-03T08:35:27.672Z,965.76
2018-01-03T08:36:27.705Z,965.84
2018-01-03T08:37:27.743Z,965.67
2018-01-03T08:38:27.771Z,965.72
2018-01-03T08:39:27.806Z,965.70
2018-01-03T08:40:27.841Z,965.73
2018-01-03T08:41:27.885Z,965.82
2018-01-03T08:42:27.906Z,965.77
2018-01-03T08:43:27.944Z,965.90
2018-01-03T08:44:28.028Z,965.97
2018-01-03T08:45:28.061Z,965.96
2018-01-03T08:46:28.041Z,965.99
2018-01-03T08:47:28.128Z,965.93
2018-01-03T08:48:28.104Z,966.02
2018-01-03T08:49:28.141Z,965.94
2018-01-03T08:50:28.172Z,965.94
2018-01-03T08:51:28.273Z,966.01
2018-01-03T08:52:28.242Z,965.99
2018-01-03T08:53:28.272Z,965.94
2018-01-03T08:54:28.305Z,965.94
2018-01-03T08:55:28.343Z,965.97
2018-01-03T08:56:28.372Z,966.00
2018-01-03T08:57:28.408Z,965.95
2018-01-03T08:58:28.440Z,965.95
2018-01-03T08:59:28.472Z,965.90
2018-01-03T09:00:28.507Z,965.81
2018-01-03T09:01:28.598Z,965.71
2018-01-03T09:02:28.574Z,965.70
2018-01-03T09:03:28.613Z,965.72
2018-01-03T09:04:28.641Z,965.74
2018-01-03T09:05:28.705Z,965.76
2018-01-03T09:06:28.710Z,965.80
2018-01-03T09:07:28.743Z,965.82
2018-01-03T09:08:28.777Z,965.91
2018-01-03T09:09:28.814Z,965.91
2018-01-03T09:10:28.845Z,965.84
2018-01-03T09:11:28.878Z,965.86
2018-01-03T09:12:28.910Z,965.80
2018-01-03T09:13:28.944Z,965.76
2018-01-03T09:14:28.980Z,965.77
2018-01-03T09:15:29.080Z,965.72
2018-01-03T09:16:29.046Z,965.69
2018-01-03T09:17:29.085Z,965.55
2018-01-03T09:18:29.113Z,965.51
2018-01-03T09:19:29.148Z,965.50
2018-01-03T09:20:29.180Z,965.59
2018-01-03T09:21:29.216Z,965.51
2018-01-03T09:22:29.252Z,965.44
2018-01-03T09:23:29.293Z,965.49
2018-01-03T09:24:29.321Z,965.53
2018-01-03T09:25:29.351Z,965.45
2018-01-03T09:26:29.386Z,965.48
2018-01-03T09:27:29.421Z,965.55
2018-01-03T09:28:29.476Z,965.56
2018-01-03T09:29:29.487Z,965.50
2018-01-03T09:30:29.522Z,965.62
2018-01-03T09:31:29.555Z,965.82
2018-01-03T09:32:29.587Z,965.91
2018-01-03T09:33:29.621Z,966.12
2018-01-03T09:34:29.711Z,966.78
2018-01-03T09:35:29.689Z,967.40
2018-01-03T09:36:29.744Z,967.76
2018-01-03T09:37:29.757Z,967.79
2018-01-03T09:38:29.793Z,967.48
2018-01-03T09:39:29.890Z,967.42
2018-01-03T09:40:29.859Z,967.37
2018-01-03T09:41:29.972Z,967.34
2018-01-03T09:42:29.925Z,967.34
2018-01-03T09:43:29.959Z,967.22
2018-01-03T09:44:29.991Z,967.34
2018-01-03T09:45:30.025Z,967.29
2018-01-03T09:46:30.058Z,967.39
2018-01-03T09:47:30.090Z,967.25
2018-01-03T09:48:30.191Z,967.34
2018-01-03T09:49:30.153Z,967.26
2018-01-03T09:50:30.192Z,967.29
2018-01-03T09:51:30.216Z,967.29
2018-01-03T09:52:30.251Z,967.25
2018-01-03T09:54:30.322Z,967.18
2018-01-03T09:55:30.349Z,967.08
2018-01-03T09:56:30.381Z,967.17
2018-01-03T09:57:30.412Z,967.14
2018-01-03T09:58:30.442Z,967.22
2018-01-03T09:59:30.480Z,967.20
2018-01-03T10:00:30.524Z,967.30
2018-01-03T10:01:30.562Z,967.13
2018-01-03T10:02:30.571Z,967.04
2018-01-03T10:03:30.603Z,967.14
2018-01-03T10:04:30.643Z,967.14
2018-01-03T10:05:30.740Z,967.19
2018-01-03T10:06:30.701Z,967.22
2018-01-03T10:07:30.732Z,967.30
2018-01-03T10:08:30.783Z,967.26
2018-01-03T10:09:30.821Z,967.28
2018-01-03T10:10:30.834Z,967.27
2018-01-03T10:11:30.860Z,967.24
2018-01-03T10:12:30.892Z,967.24
2018-01-03T10:13:30.925Z,967.32
2018-01-03T10:14:30.957Z,967.29
2018-01-03T10:15:30.986Z,967.24
2018-01-03T10:16:31.088Z,967.41
2018-01-03T10:17:31.053Z,967.36
2018-01-03T10:18:31.083Z,967.38
2018-01-03T10:19:31.122Z,967.43
2018-01-03T10:20:31.170Z,967.42
2018-01-03T10:21:31.184Z,967.41
2018-01-03T10:22:31.213Z,967.47
2018-01-03T10:23:31.245Z,967.44
2018-01-03T10:24:31.343Z,967.57
2018-01-03T10:25:31.321Z,967.54
2018-01-03T10:26:31.344Z,967.54
2018-01-03T10:27:31.372Z,967.64
2018-01-03T10:28:31.406Z,967.59
2018-01-03T10:29:31.435Z,967.64
2018-01-03T10:30:31.466Z,967.64
2018-01-03T10:31:31.521Z,967.70
2018-01-03T10:32:31.536Z,967.68
2018-01-03T10:33:31.563Z,967.79
2018-01-03T10:34:31.596Z,967.75
2018-01-03T10:35:31.628Z,967.72
2018-01-03T10:36:31.865Z,967.75
2018-01-03T10:37:31.694Z,967.78
2018-01-03T10:38:31.727Z,967.78
2018-01-03T10:40:31.790Z,967.84
2018-01-03T10:41:31.819Z,967.87
2018-01-03T10:42:31.849Z,967.92
2018-01-03T10:43:31.884Z,967.99
2018-01-03T10:44:31.918Z,967.97
2018-01-03T10:45:31.947Z,967.93
2018-01-03T10:46:31.978Z,967.95
2018-01-03T10:47:32.011Z,968.00
2018-01-03T10:48:32.052Z,967.92
2018-01-03T10:49:32.076Z,967.88
2018-01-03T10:50:32.114Z,967.93
2018-01-03T10:51:32.345Z,967.91
2018-01-03T10:52:32.177Z,968.00
2018-01-03T10:53:32.206Z,967.96
2018-01-03T10:54:32.234Z,968.03
2018-01-03T10:55:32.332Z,967.92
2018-01-03T10:56:32.304Z,967.96
2018-01-03T10:57:32.337Z,967.91
2018-01-03T10:59:32.396Z,967.91
2018-01-03T11:00:32.432Z,967.84
2018-01-03T11:01:32.461Z,967.91
2018-01-03T11:02:32.820Z,967.94
2018-01-03T11:03:32.527Z,967.95
2018-01-03T11:05:32.587Z,968.08
2018-01-03T11:06:32.621Z,968.05
2018-01-03T11:07:32.682Z,968.10
2018-01-03T11:08:32.688Z,968.06
2018-01-03T11:09:32.717Z,968.12
2018-01-03T11:10:32.749Z,968.06
2018-01-03T11:11:32.779Z,968.12
2018-01-03T11:12:32.837Z,968.17
2018-01-03T11:13:32.843Z,968.17
2018-01-03T11:14:32.878Z,968.24
2018-01-03T11:15:32.909Z,968.27
2018-01-03T11:16:32.998Z,968.40
2018-01-03T11:17:32.976Z,968.40
2018-01-03T11:18:33.013Z,968.42
2018-01-03T11:19:33.098Z,968.42
2018-01-03T11:20:33.070Z,968.45
2018-01-03T11:21:33.163Z,968.49
2018-01-03T11:22:33.139Z,968.45
2018-01-03T11:23:33.222Z,968.39
2018-01-03T11:24:33.214Z,968.40
2018-01-03T11:25:33.242Z,968.52
2018-01-03T11:26:33.262Z,968.48
2018-01-03T11:27:33.297Z,968.48
2018-01-03T11:28:33.329Z,968.51
2018-01-03T11:29:33.359Z,968.48
2018-01-03T11:30:33.389Z,968.52
2018-01-03T11:31:33.423Z,968.70
2018-01-03T11:32:33.455Z,968.66
2018-01-03T11:33:33.490Z,968.71
2018-01-03T11:34:33.536Z,968.68
2018-01-03T11:35:33.550Z,968.72
2018-01-03T11:36:33.603Z,968.75
2018-01-03T11:37:33.637Z,968.86
2018-01-03T11:38:33.673Z,968.84
2018-01-03T11:39:33.681Z,968.87
2018-01-03T11:40:33.715Z,968.92
2018-01-03T11:41:33.781Z,968.99
2018-01-03T11:42:33.779Z,968.81
2018-01-03T11:43:33.812Z,969.01
2018-01-03T11:44:33.843Z,968.98
2018-01-03T11:45:33.986Z,969.00
2018-01-03T11:46:33.928Z,969.06
2018-01-03T11:47:33.941Z,969.00
2018-01-03T11:48:33.974Z,969.06
2018-01-03T11:49:34.007Z,969.09
2018-01-03T11:50:34.041Z,969.32
2018-01-03T11:51:34.073Z,969.36
2018-01-03T11:52:34.105Z,969.40
2018-01-03T11:53:34.148Z,969.27
2018-01-03T11:54:34.171Z,969.34
2018-01-03T11:55:34.202Z,969.33
2018-01-03T11:56:34.237Z,969.42
2018-01-03T11:57:34.274Z,969.55
2018-01-03T11:58:34.305Z,969.59
2018-01-03T11:59:34.335Z,969.72
2018-01-03T12:00:34.384Z,969.71
2018-01-03T12:01:34.423Z,969.71
2018-01-03T12:02:34.436Z,969.74
2018-01-03T12:03:34.465Z,969.76
2018-01-03T12:04:34.503Z,969.75
2018-01-03T12:05:34.533Z,969.80
2018-01-03T12:06:34.592Z,969.81
2018-01-03T12:07:34.600Z,969.79
2018-01-03T12:08:34.637Z,969.71
2018-01-03T12:09:34.664Z,969.72
2018-01-03T12:10:34.753Z,969.64
2018-01-03T12:11:34.735Z,969.68
2018-01-03T12:12:34.771Z,969.75
2018-01-03T12:13:34.798Z,969.69
2018-01-03T12:14:34.832Z,969.77
2018-01-03T12:15:34.887Z,969.84
2018-01-03T12:16:34.895Z,969.68
2018-01-03T12:17:34.926Z,969.75
2018-01-03T12:18:34.957Z,969.91
2018-01-03T12:19:34.995Z,969.81
2018-01-03T12:20:35.031Z,969.81
2018-01-03T12:21:35.058Z,969.87
2018-01-03T12:22:35.094Z,969.76
2018-01-03T12:23:35.126Z,969.85
2018-01-03T12:24:35.159Z,969.89
2018-01-03T12:25:35.190Z,969.88
2018-01-03T12:26:35.229Z,969.80
2018-01-03T12:27:35.256Z,969.85
2018-01-03T12:28:35.352Z,969.89
2018-01-03T12:29:35.327Z,969.87
2018-01-03T12:30:35.356Z,969.81
2018-01-03T12:31:35.387Z,969.88
2018-01-03T12:32:35.421Z,969.77